createdAt,value
2023-04-13T00:02:16.902Z,6.68
2023-04-13T00:12:40.954Z,6.56
2023-04-13T00:23:02.872Z,6.49
2023-04-13T00:33:24.271Z,6.44
2023-04-13T00:43:45.869Z,6.47
2023-04-13T00:54:07.314Z,6.43
2023-04-13T01:04:30.527Z,6.43
2023-04-13T01:14:58.972Z,6.34
2023-04-13T01:25:21.496Z,6.30
2023-04-13T01:35:44.674Z,6.25
2023-04-13T01:46:06.443Z,6.18
2023-04-13T01:56:28.565Z,6.20
2023-04-13T02:06:51.557Z,6.13
2023-04-13T02:17:12.921Z,6.15
2023-04-13T02:27:38.814Z,6.28
2023-04-13T02:38:00.220Z,6.29
2023-04-13T02:48:21.859Z,6.29
2023-04-13T02:58:44.671Z,6.33
2023-04-13T03:09:06.036Z,6.42
2023-04-13T03:19:28.601Z,6.48
2023-04-13T03:29:50.028Z,6.50
2023-04-13T03:40:11.609Z,6.48
2023-04-13T03:50:33.018Z,6.48
2023-04-13T04:00:54.357Z,6.53
2023-04-13T04:11:16.712Z,6.57
2023-04-13T04:21:38.059Z,6.64
2023-04-13T04:32:03.316Z,6.68
2023-04-13T04:42:24.815Z,6.71
2023-04-13T04:52:46.170Z,6.82
2023-04-13T05:03:08.264Z,6.87
2023-04-13T05:13:29.758Z,6.92
2023-04-13T05:23:51.121Z,7.00
2023-04-13T05:34:12.879Z,7.07
2023-04-13T05:44:34.231Z,7.13
2023-04-13T05:54:56.094Z,7.20
2023-04-13T06:05:18.321Z,7.26
2023-04-13T06:15:40.252Z,7.42
2023-04-13T06:26:03.756Z,7.54
2023-04-13T06:36:26.584Z,7.67
2023-04-13T06:46:48.034Z,7.81
2023-04-13T06:57:09.475Z,8.06
2023-04-13T07:07:30.912Z,8.34
2023-04-13T07:17:52.472Z,8.52
2023-04-13T07:28:14.048Z,8.46
2023-04-13T07:38:35.445Z,8.59
2023-04-13T07:48:56.924Z,8.88
2023-04-13T07:59:18.292Z,9.09
2023-04-13T08:09:40.329Z,9.26
2023-04-13T08:20:01.819Z,9.30
2023-04-13T08:30:23.234Z,9.39
2023-04-13T08:40:44.800Z,9.49
2023-04-13T08:51:07.375Z,9.67
2023-04-13T09:01:31.344Z,9.68
2023-04-13T09:11:53.044Z,10.00
2023-04-13T09:22:15.197Z,10.24
2023-04-13T09:32:39.106Z,10.26
2023-04-13T09:43:01.394Z,10.19
2023-04-13T09:53:22.761Z,9.95
2023-04-13T10:03:44.413Z,9.59
2023-04-13T10:14:09.297Z,9.55
2023-04-13T10:24:30.813Z,9.79
2023-04-13T10:34:53.152Z,10.36
2023-04-13T10:45:35.966Z,10.86
2023-04-13T10:55:57.857Z,11.26
2023-04-13T11:06:19.606Z,11.39
2023-04-13T11:16:45.066Z,10.96
2023-04-13T11:27:16.231Z,10.40
2023-04-13T11:37:41.983Z,10.16
2023-04-13T11:48:06.153Z,9.92
2023-04-13T11:58:28.277Z,9.98
2023-04-13T12:08:57.728Z,10.40
2023-04-13T12:19:27.222Z,11.03
2023-04-13T12:29:49.364Z,11.48
2023-04-13T12:40:12.638Z,11.49
2023-04-13T12:50:34.446Z,11.77
2023-04-13T13:00:55.941Z,11.60
2023-04-13T13:11:17.563Z,11.58
2023-04-13T13:21:38.913Z,12.00
2023-04-13T13:32:00.424Z,12.43
2023-04-13T13:42:21.880Z,12.53
2023-04-13T13:52:55.218Z,11.85
2023-04-13T14:03:21.766Z,11.93
2023-04-13T14:13:43.248Z,12.53
2023-04-13T14:24:04.927Z,12.89
2023-04-13T14:34:26.382Z,13.08
2023-04-13T14:44:48.140Z,13.26
2023-04-13T14:55:10.007Z,13.55
2023-04-13T15:05:35.571Z,13.44
2023-04-13T15:15:57.260Z,13.96
2023-04-13T15:26:19.454Z,13.43
2023-04-13T15:36:40.893Z,13.07
2023-04-13T15:47:03.192Z,13.01
2023-04-13T15:57:24.706Z,12.87
2023-04-13T16:07:46.305Z,12.97
2023-04-13T16:18:08.027Z,13.16
2023-04-13T16:28:29.757Z,13.04
2023-04-13T16:38:53.018Z,12.99
2023-04-13T16:49:14.394Z,12.82
2023-04-13T16:59:35.966Z,12.82
2023-04-13T17:09:57.437Z,12.92
2023-04-13T17:20:18.889Z,12.84
2023-04-13T17:30:40.343Z,12.65
2023-04-13T17:41:01.880Z,12.51
2023-04-13T17:51:23.305Z,12.28
2023-04-13T18:01:45.157Z,12.21
2023-04-13T18:12:06.767Z,12.00
2023-04-13T18:22:28.243Z,11.78
2023-04-13T18:32:51.433Z,11.43
2023-04-13T18:43:12.946Z,11.19
2023-04-13T18:53:34.349Z,10.93
2023-04-13T19:03:55.867Z,10.70
2023-04-13T19:14:17.582Z,10.42
2023-04-13T19:24:39.054Z,10.27
2023-04-13T19:35:00.445Z,10.05
2023-04-13T19:45:21.816Z,9.93
2023-04-13T19:55:43.261Z,9.79
2023-04-13T20:06:04.684Z,9.62
2023-04-13T20:16:27.130Z,9.55
2023-04-13T20:26:48.589Z,9.44
2023-04-13T20:37:10.233Z,9.33
2023-04-13T20:47:31.691Z,9.25
2023-04-13T20:57:53.202Z,9.05
2023-04-13T21:08:14.910Z,8.98
2023-04-13T21:18:36.892Z,8.88
2023-04-13T21:28:58.555Z,8.70
2023-04-13T21:39:20.584Z,8.62
2023-04-13T21:49:43.177Z,8.44
2023-04-13T22:00:06.556Z,8.42
2023-04-13T22:10:28.288Z,8.30
2023-04-13T22:20:49.797Z,8.13
2023-04-13T22:31:12.033Z,8.01
2023-04-13T22:41:34.026Z,7.92
2023-04-13T22:51:56.235Z,7.91
2023-04-13T23:02:17.765Z,7.83
2023-04-13T23:12:39.941Z,7.76
2023-04-13T23:23:01.723Z,7.75
2023-04-13T23:33:23.134Z,7.69
2023-04-13T23:43:44.505Z,7.60
2023-04-13T23:54:06.127Z,7.57
